Majesty of the Seas — C6FZ8 — position and weather

sailwx.info

Track history (hours):
 
Tides and Currents Weather Stations Pressure Air Temp Water Temp Dewpoint Dewpoint Depression Visibility Wind Speed Wind Dir Waves Ship Positions

Majesty of the Seas (Bahamas)

Last reported at 2016-Feb-14 06:00 UTC. Time now 2016-Feb-14 12:46 UTC.
Position N 25°24' W 077°12'.

Length 268 m; draft 7.9 m.

Type: Passenger vessel. MMSI: 311734000.

Wind from 020 at 22 knots

Barometer 1021.0 mb
Air temperature 19.8 ° C
Dewpoint 15.4 ° C
Water temperature 25.8 ° C

Date/timePositionNaut miles runAvg speedWind from/ knotsBaromVisibWave heightAir tempDewpointWater temp
2016-Feb-14 06:00N 25°24' W 077°12'133 5.1 020 / 221021.0 19.815.425.8
2016-Feb-13 04:07N 26°04' W 079°32'712.6
2016-Feb-13 03:33N 26°00' W 079°39'1414.2
2016-Feb-13 02:33N 25°53' W 079°53'1212.2
2016-Feb-13 01:33N 25°46' W 080°04'6 6.1
2016-Feb-13 00:33N 25°47' W 080°11'0 0.0
2016-Feb-12 23:33N 25°47' W 080°11'0 0.0
2016-Feb-12 22:30N 25°47' W 080°11'0 0.0
2016-Feb-12 21:33N 25°47' W 080°11'0 0.0
2016-Feb-12 20:33N 25°47' W 080°11'0 0.0
2016-Feb-12 19:33N 25°47' W 080°11'0 0.0
2016-Feb-12 18:33N 25°47' W 080°11'0 0.0
2016-Feb-12 17:33N 25°47' W 080°11'0 0.0
2016-Feb-12 16:33N 25°47' W 080°11'0 0.0
2016-Feb-12 15:33N 25°47' W 080°11'0 0.0
2016-Feb-12 14:33N 25°47' W 080°11'0 0.0
2016-Feb-12 13:33N 25°47' W 080°11'0 0.0
2016-Feb-12 12:33N 25°47' W 080°11'0 0.0
2016-Feb-12 11:33N 25°47' W 080°11'0 0.0
2016-Feb-12 10:33N 25°47' W 080°11'2 2.1
2016-Feb-12 09:33N 25°46' W 080°09'1211.8
2016-Feb-12 08:33N 25°51' W 079°56'1010.4
2016-Feb-12 07:33N 25°57' W 079°47'10 9.9
2016-Feb-12 06:33N 26°01' W 079°37'712.1
2016-Feb-12 06:00N 26°00' W 079°30'716.7 120 / 61025.0 18.511.2
2016-Feb-12 05:33N 26°07' W 079°27'90 5.3
2016-Feb-11 12:26N 25°51' W 077°48'  
2016-Feb-09 01:15N 26°03' W 079°34'710.1
2016-Feb-09 00:33N 25°59' W 079°41'1010.5
2016-Feb-08 23:33N 25°54' W 079°50'9 8.8
2016-Feb-08 22:34N 25°49' W 079°59'8 8.5
2016-Feb-08 21:33N 25°46' W 080°07'3 3.0
2016-Feb-08 20:31N 25°47' W 080°11'0 0.0
2016-Feb-08 19:31N 25°47' W 080°11'0 0.0
2016-Feb-08 18:28N 25°47' W 080°11'0 0.0
2016-Feb-08 17:31N 25°47' W 080°11'0 0.0
2016-Feb-08 16:31N 25°47' W 080°11'0 0.0
2016-Feb-08 15:31N 25°47' W 080°11'0 0.0
2016-Feb-08 14:31N 25°47' W 080°11'0 0.0
2016-Feb-08 13:31N 25°47' W 080°11'0 0.0
2016-Feb-08 12:31N 25°47' W 080°11'0 0.0
2016-Feb-08 11:33N 25°47' W 080°11'7 6.6
2016-Feb-08 10:33N 25°47' W 080°03'8 8.2
2016-Feb-08 09:33N 25°50' W 079°55'9 9.1
2016-Feb-08 08:33N 25°54' W 079°46'10 9.9
2016-Feb-08 07:33N 25°60' W 079°37'9 9.3
2016-Feb-08 06:34N 26°03' W 079°28'5 4.5
2016-Feb-08 05:34N 26°07' W 079°31'8 7.6
2016-Feb-08 04:33N 26°09' W 079°23'  
2016-Feb-05 23:24N 25°51' W 079°56'7 8.4
2016-Feb-05 22:33N 25°47' W 080°03'7 7.3
2016-Feb-05 21:34N 25°47' W 080°11'0 0.1
2016-Feb-05 20:33N 25°47' W 080°11'0 0.0
2016-Feb-05 19:33N 25°47' W 080°11'0 0.0
2016-Feb-05 18:33N 25°47' W 080°11'0 0.0
2016-Feb-05 17:33N 25°47' W 080°11'0 0.0
2016-Feb-05 16:33N 25°47' W 080°11'0 0.0
2016-Feb-05 15:33N 25°47' W 080°11'0 0.0
2016-Feb-05 14:33N 25°47' W 080°11'0 0.0
2016-Feb-05 13:33N 25°47' W 080°11'0 0.0
2016-Feb-05 12:33N 25°47' W 080°11'0 0.0
2016-Feb-05 11:33N 25°47' W 080°11'6 5.8
2016-Feb-05 10:33N 25°46' W 080°04'10 9.8
2016-Feb-05 09:34N 25°41' W 079°55'1514.6
2016-Feb-05 08:34N 25°27' W 079°50'  
Track history (hours):
 
Tides and Currents Weather Stations Pressure Air Temp Water Temp Dewpoint Dewpoint Depression Visibility Wind Speed Wind Dir Waves Ship Positions

Majesty of the Seas (Bahamas)

Last reported at 2016-Feb-14 06:00 UTC. Time now 2016-Feb-14 12:46 UTC.
Position N 25°24' W 077°12'.

Length 268 m; draft 7.9 m.

Type: Passenger vessel. MMSI: 311734000.

Wind from 020 at 22 knots

Barometer 1021.0 mb
Air temperature 19.8 ° C
Dewpoint 15.4 ° C
Water temperature 25.8 ° C

Date/timePositionNaut miles runAvg speedWind from/ knotsBaromVisibWave heightAir tempDewpointWater temp
2016-Feb-14 06:00N 25°24' W 077°12'133 5.1 020 / 221021.0 19.815.425.8
2016-Feb-13 04:07N 26°04' W 079°32'712.6
2016-Feb-13 03:33N 26°00' W 079°39'1414.2
2016-Feb-13 02:33N 25°53' W 079°53'1212.2
2016-Feb-13 01:33N 25°46' W 080°04'6 6.1
2016-Feb-13 00:33N 25°47' W 080°11'0 0.0
2016-Feb-12 23:33N 25°47' W 080°11'0 0.0
2016-Feb-12 22:30N 25°47' W 080°11'0 0.0
2016-Feb-12 21:33N 25°47' W 080°11'0 0.0
2016-Feb-12 20:33N 25°47' W 080°11'0 0.0
2016-Feb-12 19:33N 25°47' W 080°11'0 0.0
2016-Feb-12 18:33N 25°47' W 080°11'0 0.0
2016-Feb-12 17:33N 25°47' W 080°11'0 0.0
2016-Feb-12 16:33N 25°47' W 080°11'0 0.0
2016-Feb-12 15:33N 25°47' W 080°11'0 0.0
2016-Feb-12 14:33N 25°47' W 080°11'0 0.0
2016-Feb-12 13:33N 25°47' W 080°11'0 0.0
2016-Feb-12 12:33N 25°47' W 080°11'0 0.0
2016-Feb-12 11:33N 25°47' W 080°11'0 0.0
2016-Feb-12 10:33N 25°47' W 080°11'2 2.1
2016-Feb-12 09:33N 25°46' W 080°09'1211.8
2016-Feb-12 08:33N 25°51' W 079°56'1010.4
2016-Feb-12 07:33N 25°57' W 079°47'10 9.9
2016-Feb-12 06:33N 26°01' W 079°37'712.1
2016-Feb-12 06:00N 26°00' W 079°30'716.7 120 / 61025.0 18.511.2
2016-Feb-12 05:33N 26°07' W 079°27'90 5.3
2016-Feb-11 12:26N 25°51' W 077°48'  
2016-Feb-09 01:15N 26°03' W 079°34'710.1
2016-Feb-09 00:33N 25°59' W 079°41'1010.5
2016-Feb-08 23:33N 25°54' W 079°50'9 8.8
2016-Feb-08 22:34N 25°49' W 079°59'8 8.5
2016-Feb-08 21:33N 25°46' W 080°07'3 3.0
2016-Feb-08 20:31N 25°47' W 080°11'0 0.0
2016-Feb-08 19:31N 25°47' W 080°11'0 0.0
2016-Feb-08 18:28N 25°47' W 080°11'0 0.0
2016-Feb-08 17:31N 25°47' W 080°11'0 0.0
2016-Feb-08 16:31N 25°47' W 080°11'0 0.0
2016-Feb-08 15:31N 25°47' W 080°11'0 0.0
2016-Feb-08 14:31N 25°47' W 080°11'0 0.0
2016-Feb-08 13:31N 25°47' W 080°11'0 0.0
2016-Feb-08 12:31N 25°47' W 080°11'0 0.0
2016-Feb-08 11:33N 25°47' W 080°11'7 6.6
2016-Feb-08 10:33N 25°47' W 080°03'8 8.2
2016-Feb-08 09:33N 25°50' W 079°55'9 9.1
2016-Feb-08 08:33N 25°54' W 079°46'10 9.9
2016-Feb-08 07:33N 25°60' W 079°37'9 9.3
2016-Feb-08 06:34N 26°03' W 079°28'5 4.5
2016-Feb-08 05:34N 26°07' W 079°31'8 7.6
2016-Feb-08 04:33N 26°09' W 079°23'  
2016-Feb-05 23:24N 25°51' W 079°56'7 8.4
2016-Feb-05 22:33N 25°47' W 080°03'7 7.3
2016-Feb-05 21:34N 25°47' W 080°11'0 0.1
2016-Feb-05 20:33N 25°47' W 080°11'0 0.0
2016-Feb-05 19:33N 25°47' W 080°11'0 0.0
2016-Feb-05 18:33N 25°47' W 080°11'0 0.0
2016-Feb-05 17:33N 25°47' W 080°11'0 0.0
2016-Feb-05 16:33N 25°47' W 080°11'0 0.0
2016-Feb-05 15:33N 25°47' W 080°11'0 0.0
2016-Feb-05 14:33N 25°47' W 080°11'0 0.0
2016-Feb-05 13:33N 25°47' W 080°11'0 0.0
2016-Feb-05 12:33N 25°47' W 080°11'0 0.0
2016-Feb-05 11:33N 25°47' W 080°11'6 5.8
2016-Feb-05 10:33N 25°46' W 080°04'10 9.8
2016-Feb-05 09:34N 25°41' W 079°55'1514.6
2016-Feb-05 08:34N 25°27' W 079°50'  

Dump ship's entire track history